Main page
METAR-TAF:

METAR-TAF

Airports :

Kassel Airport

Kassel, Germany

latitude: 51-24N, longitude: 009-23E, elevation: 277 m

Current weather observation

The report was made 35 minutes ago, at 16:20 UTC
Wind 2 kt from variable directions
Temperature -1°C
Humidity 93%
Pressure 1020 hPa
Visibility: 6000 m
Overcast at a height of 700 ft

METAR: EDVK 251620Z VRB02KT 6000 OVC007 M01/M02 Q1020

Time: 17:55 (16:55 UTC)

Forecast

The report was made 2 hours and 55 minutes ago, at 14:00 UTC
Forecast valid from 25 at 15 UTC to 25 at 24 UTC
Wind 3 kt from variable directions
Visibility: 6000 m
Overcast at a height of 700 ft
Temporary
from 25 at 15 UTC to 25 at 20 UTC
Visibility: 3000 m
Broken clouds at a height of 200 ft
patches of fog
Becoming
from 25 at 19 UTC to 25 at 21 UTC
Visibility: 0200 m
at a height of 100 ft
fog

TAF: EDVK 251400Z 2515/2524 VRB03KT 6000 OVC007 TEMPO 2515/2520 3000 BCFG BKN002 BECMG 2519/2521 0200 FG VV001

Weather observations and forecasts of more than 4000 airports (METAR and TAF reports).

The available stations are represented by yellow and red dots on the map.

Hover mouse over dot to see the name of the station.

Then click to see weather observations and forecasts.

To change the map : click on the green buttons with a black cross to zoom in, on the green button with a dash to zoom out, or on the green arrows for adjacent maps.


METAR-TAF: